Flight Track Log - Related Links

Times and Time Zones

All times are in EDT time to prevent confusion due to time zone crossing. See the UPS1122 flight status page for this flight to view local times or setup timezone preferences in your user account.

Time Position Orientation Groundspeed Altitude Reporting Facility
EDT Latitude Longitude Course Direction KTS MPH feet Rate Location/Type
Wed 03:39:06 AM 39.8560 -75.2850 242° Southwest 189 217 1,500  Level FlightAware ADS-B
Wed 03:39:25 AM 39.8480 -75.3050 242° Southwest 208 239 2,100 1,929 Climbing FlightAware ADS-B
Wed 03:39:34 AM 39.8430 -75.3150 237° Southwest 217 250 2,400 2,400 Climbing FlightAware ADS-B
Wed 03:39:40 AM 39.8380 -75.3200 218° Southwest 219 252 2,700 3,200 Climbing FlightAware ADS-B
Wed 03:39:49 AM 39.8300 -75.3250 206° Southwest 218 251 3,200 3,000 Climbing FlightAware ADS-B
Wed 03:39:54 AM 39.8250 -75.3260 189° South 218 251 3,400 2,909 Climbing FlightAware ADS-B
Wed 03:40:22 AM 39.8010 -75.3130 157° South 225 259 4,800 3,086 Climbing FlightAware ADS-B
Wed 03:40:29 AM 39.7950 -75.3030 128° Southeast 227 261 5,200 2,400 Climbing FlightAware ADS-B
Wed 03:40:37 AM 39.7930 -75.2940 106° East 234 269 5,400 1,200 Climbing FlightAware ADS-B
Wed 03:40:44 AM 39.7920 -75.2840 97° East 246 283 5,500 1,667 Climbing FlightAware ADS-B
Wed 03:41:13 AM 39.7920 -75.2380 90° East 281 323 6,400 2,250 Climbing FlightAware ADS-B
Wed 03:41:32 AM 39.7930 -75.2050 88° East 286 329 7,300 3,000 Climbing FlightAware ADS-B
Wed 03:41:53 AM 39.7930 -75.1690 90° East 292 336 8,400 3,073 Climbing FlightAware ADS-B
Wed 03:42:13 AM 39.7930 -75.1300 90° East 298 343 9,400 2,316 Climbing FlightAware ADS-B
Wed 03:42:50 AM 39.7920 -75.0610 91° East 326 375 10,600 1,667 Climbing FlightAware ADS-B
Wed 03:43:25 AM 39.7910 -74.9880 91° East 362 417 11,400 1,521 Climbing FlightAware ADS-B
Wed 03:44:01 AM 39.7910 -74.9060 90° East 387 445 12,400 2,118 Climbing FlightAware ADS-B
Wed 03:44:33 AM 39.7920 -74.8300 89° East 388 447 13,800 2,229 Climbing FlightAware ADS-B
Wed 03:45:11 AM 39.7940 -74.7420 88° East 397 457 15,000 1,920 Climbing FlightAware ADS-B
Wed 03:45:23 AM 39.8020 -74.7130 70° East 397 457 15,400 1,778 Climbing FlightAware ADS-B
Wed 03:45:38 AM 39.8180 -74.6850 53° Northeast 399 459 15,800 1,714 Climbing FlightAware ADS-B
Wed 03:45:51 AM 39.8370 -74.6650 39° Northeast 400 460 16,200 2,375 Climbing FlightAware ADS-B
Wed 03:46:26 AM 39.8900 -74.6200 33° Northeast 396 456 17,700 2,113 Climbing FlightAware ADS-B
Wed 03:47:02 AM 39.9450 -74.5740 33° Northeast 403 464 18,700 1,565 Climbing FlightAware ADS-B
Wed 03:47:35 AM 39.9960 -74.5280 35° Northeast 415 478 19,500 1,565 Climbing FlightAware ADS-B
Wed 03:48:11 AM 40.0550 -74.4750 35° Northeast 421 484 20,500 1,216 Climbing FlightAware ADS-B
Wed 03:48:49 AM 40.1160 -74.4200 35° Northeast 438 504 21,000 429 Climbing FlightAware ADS-B
Wed 03:49:21 AM 40.1680 -74.3720 35° Northeast 428 493 21,000  Level FlightAware ADS-B
Wed 03:49:56 AM 40.2230 -74.3210 35° Northeast 424 488 21,000  Level FlightAware ADS-B
Wed 03:50:32 AM 40.2820 -74.2660 35° Northeast 424 488 21,000  Level FlightAware ADS-B
Wed 03:51:03 AM 40.3310 -74.2190 36° Northeast 423 487 21,000  Level FlightAware ADS-B
Wed 03:51:42 AM 40.3930 -74.1620 35° Northeast 421 484 21,000  Level FlightAware ADS-B
Wed 03:52:17 AM 40.4480 -74.1100 36° Northeast 421 484 21,000  Level FlightAware ADS-B
Wed 03:52:51 AM 40.5020 -74.0590 36° Northeast 420 483 21,000  Level FlightAware ADS-B
Wed 03:52:54 AM 40.5069 -74.0544 36° Northeast 421 484 21,000  Level FlightAware ADS-B (KSNC)
Wed 03:53:26 AM 40.5582 -74.0062 35° Northeast 421 484 21,000  Level FlightAware ADS-B (KSNC)
Wed 03:53:59 AM 40.6090 -73.9593 35° Northeast 420 483 21,000  Level FlightAware ADS-B (KSNC)
Wed 03:54:41 AM 40.6745 -73.8994 35° Northeast 419 482 21,000  Level FlightAware ADS-B (KSNC)
Wed 03:55:11 AM 40.7250 -73.8530 35° Northeast 418 481 21,000  Level FlightAware ADS-B (KSNC)
Wed 03:55:50 AM 40.7857 -73.7970 35° Northeast 417 480 21,000  Level FlightAware ADS-B (KSNC)
Wed 03:56:22 AM 40.8361 -73.7500 35° Northeast 416 479 21,000  Level FlightAware ADS-B (KSNC)
Wed 03:56:52 AM 40.8829 -73.7064 35° Northeast 416 479 21,000  Level FlightAware ADS-B (KSNC)
Wed 03:57:32 AM 40.9470 -73.6464 35° Northeast 417 480 21,000  Level FlightAware ADS-B (KSNC)
Wed 03:58:13 AM 41.0094 -73.5867 36° Northeast 417 480 21,000  Level FlightAware ADS-B (KSNC)
Wed 03:58:43 AM 41.0512 -73.5461 36° Northeast 415 478 21,000 -1,200 Level FlightAware ADS-B (KSNC)
Wed 03:59:23 AM 41.1183 -73.4811 36° Northeast 417 480 19,600 -2,400 Descending FlightAware ADS-B (KSNC)
Wed 03:59:53 AM 41.1653 -73.4356 36° Northeast 414 476 18,200 -2,800 Descending FlightAware ADS-B (KSNC)
Wed 04:00:23 AM 41.2106 -73.3916 36° Northeast 404 465 16,800 -2,900 Descending FlightAware ADS-B (KSNC)
Wed 04:00:53 AM 41.2563 -73.3471 36° Northeast 401 461 15,300 -2,571 Descending FlightAware ADS-B (KSNC)
Wed 04:01:33 AM 41.3145 -73.2906 36° Northeast 384 442 13,800 -2,314 Descending FlightAware ADS-B (KSNC)
Wed 04:02:03 AM 41.3573 -73.2490 36° Northeast 377 434 12,600 -2,348 Descending FlightAware ADS-B (KSNC)
Wed 04:02:42 AM 41.4070 -73.2014 36° Northeast 365 420 11,100 -1,371 Descending FlightAware ADS-B (KSNC)
Wed 04:03:13 AM 41.4523 -73.1583 35° Northeast 327 376 11,000 -98 Descending FlightAware ADS-B (KSNC)
Wed 04:03:43 AM 41.4836 -73.1283 36° Northeast 295 339 11,000 -305 Level FlightAware ADS-B (KSNC)
Wed 04:04:12 AM 41.5150 -73.0916 41° Northeast 282 325 10,700 -1,100 Descending FlightAware ADS-B (KSNC)
Wed 04:04:43 AM 41.5388 -73.0457 55° Northeast 287 330 9,900 -1,500 Descending FlightAware ADS-B (KSNC)
Wed 04:05:12 AM 41.5588 -73.0044 57° Northeast 285 328 9,200 -1,500 Descending FlightAware ADS-B (KSNC)
Wed 04:05:31 AM 41.5730 -72.9748 57° Northeast 286 329 8,700 -1,500 Descending FlightAware ADS-B (KSNC)
Wed 04:05:52 AM 41.5842 -72.9511 58° Northeast 285 328 8,200 -1,421 Descending FlightAware ADS-B (KSNC)
Wed 04:06:09 AM 41.5979 -72.9219 58° Northeast 281 323 7,800 -1,350 Descending FlightAware ADS-B (KSNC)
Wed 04:06:32 AM 41.6142 -72.8878 57° Northeast 278 320 7,300 -1,535 Descending FlightAware ADS-B (KSNC)
Wed 04:06:52 AM 41.6290 -72.8574 57° Northeast 278 320 6,700 -1,846 Descending FlightAware ADS-B (KSNC)
Wed 04:07:11 AM 41.6425 -72.8302 56° Northeast 278 320 6,100 -1,610 Descending FlightAware ADS-B (KSNC)
Wed 04:07:33 AM 41.6582 -72.7990 56° Northeast 277 319 5,600 -1,429 Descending FlightAware ADS-B (KSNC)
Wed 04:07:53 AM 41.6722 -72.7709 56° Northeast 270 311 5,100 -1,650 Descending FlightAware ADS-B (KSNC)
Wed 04:08:13 AM 41.6858 -72.7433 57° Northeast 264 304 4,500 -1,800 Descending FlightAware ADS-B (KSNC)
Wed 04:08:33 AM 41.6957 -72.7231 57° Northeast 257 296 3,900 -1,610 Descending FlightAware ADS-B (KSNC)
Wed 04:08:54 AM 41.7097 -72.6944 57° Northeast 250 288 3,400 -1,171 Descending FlightAware ADS-B (KSNC)
Wed 04:09:14 AM 41.7230 -72.6669 57° Northeast 237 273 3,100 -615 Descending FlightAware ADS-B (KSNC)
Wed 04:09:33 AM 41.7353 -72.6419 57° Northeast 224 258 3,000 -171 Descending FlightAware ADS-B (KSNC)
Wed 04:09:49 AM 41.7439 -72.6243 57° Northeast 202 232 3,000  Level FlightAware ADS-B (KSNC)
Wed 04:10:14 AM 41.7558 -72.6003 56° Northeast 186 214 3,000  Level FlightAware ADS-B (KSNC)
Wed 04:10:43 AM 41.7695 -72.5722 57° Northeast 183 211 3,000  Level FlightAware ADS-B (KSNC)
Wed 04:11:02 AM 41.7773 -72.5553 58° Northeast 168 193 3,000  Level FlightAware ADS-B (KSNC)
Wed 04:11:22 AM 41.7858 -72.5372 58° Northeast 158 182 3,000 -207 Level FlightAware ADS-B (KSNC)
Wed 04:11:31 AM 41.7908 -72.5317 39° Northeast 154 177 2,900 -286 Descending FlightAware ADS-B (KSNC)
Wed 04:11:43 AM 41.7982 -72.5301 North 151 174 2,900 -486 Level FlightAware ADS-B (KSNC)
Wed 04:12:08 AM 41.8162 -72.5356 347° North 153 176 2,600 -533 Descending FlightAware ADS-B (KSNC)
Wed 04:12:28 AM 41.8288 -72.5432 336° Northwest 151 174 2,500 -154 Descending FlightAware ADS-B (KSNC)
Wed 04:12:47 AM 41.8398 -72.5539 324° Northwest 141 162 2,500  Level FlightAware ADS-B (KSNC)
Wed 04:13:09 AM 41.8497 -72.5660 318° Northwest 129 148 2,500 -556 Level FlightAware ADS-B (KSNC)
Wed 04:14:35 AM 41.8792 -72.6186 318° Northwest 121 139 1,500 -649 Descending Boston Center
Wed 04:15:37 AM 41.9042 -72.6464 320° Northwest 116 133 900 -581 Descending Boston Center

Login

Don't have an account? Register now (free) for customized features, flight alerts, and more!